Time;durP1;ratioP1;P1;durP2;ratioP2;P2;SDS_P1;SDS_P2;PMS_P1;PMS_P2;Temp;Humidity;BMP_temperature;BMP_pressure;BME280_temperature;BME280_humidity;BME280_pressure;Samples;Min_cycle;Max_cycle;Signal;HPM_P1;HPM_P2
2024/03/01 00:01:24;;;;;;;3.67;1.95;;;21.10;51.40;;;;;;5075190;28;20863;-64
2024/03/01 00:03:50;;;;;;;2.72;1.80;;;21.10;51.40;;;;;;5093662;28;20028;-63
2024/03/01 00:06:16;;;;;;;2.45;1.60;;;21.10;51.50;;;;;;5079800;28;20028;-63
2024/03/01 00:08:41;;;;;;;2.78;1.70;;;21.10;52.00;;;;;;5079538;28;20429;-63
2024/03/01 00:11:10;;;;;;;2.67;1.85;;;21.10;51.40;;;;;;5081192;28;20028;-64
2024/03/01 00:13:36;;;;;;;2.92;1.90;;;21.10;51.50;;;;;;5077665;28;20077;-63
2024/03/01 00:16:01;;;;;;;2.42;1.80;;;21.00;51.50;;;;;;5079179;28;20488;-63
2024/03/01 00:18:27;;;;;;;2.70;1.90;;;21.00;51.40;;;;;;5060244;28;20040;-63
2024/03/01 00:20:52;;;;;;;3.17;1.90;;;21.00;51.50;;;;;;5077169;28;20016;-63
2024/03/01 00:23:18;;;;;;;2.83;1.70;;;21.00;51.50;;;;;;5077419;28;20079;-63
2024/03/01 00:25:44;;;;;;;2.67;1.77;;;21.00;51.50;;;;;;5079474;28;20035;-63
2024/03/01 00:28:10;;;;;;;3.13;2.00;;;21.00;51.50;;;;;;5078312;28;20384;-63
2024/03/01 00:30:35;;;;;;;2.50;1.70;;;21.00;51.50;;;;;;5077636;28;20027;-63
2024/03/01 00:33:03;;;;;;;2.80;1.80;;;21.00;51.50;;;;;;5077323;28;20087;-63
2024/03/01 00:35:29;;;;;;;2.35;1.75;;;21.00;51.50;;;;;;5078969;28;20096;-63
2024/03/01 00:37:55;;;;;;;2.80;1.85;;;20.90;52.00;;;;;;5078017;28;20036;-64
2024/03/01 00:40:22;;;;;;;2.50;1.80;;;20.90;51.50;;;;;;5078511;28;20649;-63
2024/03/01 00:42:47;;;;;;;2.50;1.70;;;20.90;51.50;;;;;;5078642;28;20028;-63
2024/03/01 00:45:13;;;;;;;2.60;1.70;;;20.90;51.50;;;;;;5075218;28;20040;-63
2024/03/01 00:47:47;;;;;;;2.88;1.80;;;20.90;51.50;;;;;;5079083;28;20043;-64
2024/03/01 00:50:13;;;;;;;2.92;1.80;;;20.90;51.50;;;;;;5078640;28;20028;-63
2024/03/01 00:52:38;;;;;;;2.00;1.50;;;20.90;51.50;;;;;;5078086;28;20039;-63
2024/03/01 00:55:05;;;;;;;2.63;1.90;;;20.90;51.50;;;;;;5081076;28;20032;-64
2024/03/01 00:57:32;;;;;;;2.60;1.83;;;20.90;51.50;;;;;;5079913;28;20028;-64
2024/03/01 00:59:59;;;;;;;2.58;1.70;;;20.80;51.50;;;;;;5076920;28;20091;-65
2024/03/01 01:02:25;;;;;;;2.15;1.50;;;20.90;51.50;;;;;;5078251;28;20028;-64
2024/03/01 01:04:50;;;;;;;2.55;1.80;;;20.80;51.50;;;;;;5060154;28;20109;-65
2024/03/01 01:07:16;;;;;;;2.50;1.70;;;20.80;51.50;;;;;;5078092;28;20371;-64
2024/03/01 01:09:42;;;;;;;2.63;1.80;;;20.80;51.60;;;;;;5076211;28;20107;-64
2024/03/01 01:12:08;;;;;;;2.30;1.60;;;20.80;51.50;;;;;;5079430;28;20400;-64
2024/03/01 01:14:34;;;;;;;2.47;1.73;;;20.80;51.60;;;;;;5062484;28;20031;-65
2024/03/01 01:17:00;;;;;;;2.53;1.70;;;20.70;51.50;;;;;;5079045;28;20028;-64
2024/03/01 01:19:26;;;;;;;1.92;1.40;;;20.80;51.60;;;;;;5077552;28;20353;-65
2024/03/01 01:21:52;;;;;;;2.50;1.80;;;20.70;51.60;;;;;;5078640;28;20032;-65
2024/03/01 01:24:18;;;;;;;2.60;1.90;;;20.70;51.60;;;;;;5080034;28;20032;-64
2024/03/01 01:26:43;;;;;;;2.78;1.83;;;20.70;51.60;;;;;;5078601;28;20094;-65
2024/03/01 01:29:09;;;;;;;2.75;1.70;;;20.70;51.60;;;;;;5078989;28;20060;-65
2024/03/01 01:31:35;;;;;;;2.67;1.90;;;20.70;52.10;;;;;;5079292;28;20043;-66
2024/03/01 01:34:00;;;;;;;2.30;1.60;;;20.70;51.60;;;;;;5082739;28;20055;-65
2024/03/01 01:36:26;;;;;;;2.78;1.80;;;20.70;51.60;;;;;;5081768;28;20036;-65
2024/03/01 01:38:51;;;;;;;2.50;1.90;;;20.70;51.60;;;;;;5079900;28;20529;-65
2024/03/01 01:41:17;;;;;;;2.45;1.83;;;20.70;51.60;;;;;;5082229;28;20232;-65
2024/03/01 01:43:43;;;;;;;2.40;1.60;;;20.60;51.60;;;;;;5078654;28;20090;-65
2024/03/01 01:46:14;;;;;;;2.65;1.70;;;20.60;51.60;;;;;;5078142;28;20024;-65
2024/03/01 01:48:40;;;;;;;2.00;1.58;;;20.60;51.60;;;;;;5082394;28;20031;-65
2024/03/01 01:51:06;;;;;;;2.50;1.67;;;20.60;51.60;;;;;;5080944;28;20101;-64
2024/03/01 01:53:33;;;;;;;2.38;1.70;;;20.60;51.60;;;;;;5081397;28;20599;-64
2024/03/01 01:56:00;;;;;;;2.03;1.48;;;20.60;51.60;;;;;;5080825;28;20039;-64
2024/03/01 01:58:28;;;;;;;2.40;1.58;;;20.60;51.60;;;;;;5082650;28;20028;-65
2024/03/01 02:00:55;;;;;;;2.35;1.70;;;20.60;51.70;;;;;;5080343;28;20035;-64
2024/03/01 02:03:21;;;;;;;2.35;1.63;;;20.60;51.70;;;;;;5080608;28;20266;-64
2024/03/01 02:05:48;;;;;;;2.33;1.63;;;20.60;52.20;;;;;;5082196;28;20111;-65
2024/03/01 02:08:14;;;;;;;2.42;1.70;;;20.60;51.70;;;;;;5081944;28;20040;-64
2024/03/01 02:10:39;;;;;;;2.58;1.80;;;20.50;51.70;;;;;;5081716;28;20377;-64
2024/03/01 02:13:05;;;;;;;2.08;1.58;;;20.50;51.70;;;;;;5079090;28;20024;-64
2024/03/01 02:15:31;;;;;;;2.30;1.67;;;20.50;51.70;;;;;;5077977;28;20541;-65
2024/03/01 02:17:57;;;;;;;2.80;1.80;;;20.50;51.70;;;;;;5062648;28;20028;-65
2024/03/01 02:20:26;;;;;;;2.35;1.60;;;20.50;51.70;;;;;;5080109;28;20087;-65
2024/03/01 02:23:00;;;;;;;2.55;1.83;;;20.50;51.70;;;;;;5081272;28;20487;-65
2024/03/01 02:25:26;;;;;;;2.40;1.70;;;20.50;51.70;;;;;;5064665;28;20489;-65
2024/03/01 02:27:52;;;;;;;2.40;1.70;;;20.50;52.20;;;;;;5081970;28;20031;-65
2024/03/01 02:30:18;;;;;;;2.78;1.65;;;20.50;51.70;;;;;;5078067;28;20496;-65
2024/03/01 02:32:44;;;;;;;2.15;1.58;;;20.50;51.70;;;;;;5080958;28;20028;-65
2024/03/01 02:35:09;;;;;;;2.40;1.73;;;20.50;51.70;;;;;;5081001;28;20026;-65
2024/03/01 02:37:35;;;;;;;2.17;1.45;;;20.50;51.70;;;;;;5081568;28;20107;-65
2024/03/01 02:40:03;;;;;;;2.45;1.60;;;20.50;51.70;;;;;;5080979;28;20602;-65
2024/03/01 02:42:30;;;;;;;2.70;1.60;;;20.40;51.70;;;;;;5096121;28;20169;-65
2024/03/01 02:44:56;;;;;;;2.17;1.50;;;20.40;51.70;;;;;;5081092;28;20032;-65
2024/03/01 02:47:22;;;;;;;2.10;1.50;;;20.40;52.20;;;;;;5078914;28;20028;-65
2024/03/01 02:49:47;;;;;;;1.90;1.38;;;20.40;51.70;;;;;;5081363;28;20024;-65
2024/03/01 02:52:15;;;;;;;2.60;1.67;;;20.40;51.70;;;;;;5079213;28;20020;-65
2024/03/01 02:54:41;;;;;;;1.85;1.40;;;20.40;51.70;;;;;;5081106;28;20115;-65
2024/03/01 02:57:06;;;;;;;2.33;1.63;;;20.40;51.80;;;;;;5096176;28;20577;-65
2024/03/01 02:59:32;;;;;;;2.30;1.48;;;20.30;51.70;;;;;;5079599;28;20059;-65
2024/03/01 03:01:58;;;;;;;2.10;1.40;;;20.30;51.70;;;;;;5094227;28;20387;-65
2024/03/01 03:04:24;;;;;;;2.05;1.58;;;20.40;51.80;;;;;;5079658;28;20032;-65
2024/03/01 03:06:49;;;;;;;2.00;1.50;;;20.30;51.70;;;;;;5080366;28;20016;-65
2024/03/01 03:09:15;;;;;;;2.08;1.42;;;20.30;51.70;;;;;;5081370;28;20024;-65
2024/03/01 03:11:41;;;;;;;2.45;1.67;;;20.30;51.70;;;;;;5079010;28;20480;-65
2024/03/01 03:14:06;;;;;;;2.50;1.60;;;20.30;51.70;;;;;;5080207;28;20024;-65
2024/03/01 03:16:32;;;;;;;2.00;1.50;;;20.30;51.70;;;;;;5078079;28;20036;-63
2024/03/01 03:18:57;;;;;;;2.10;1.40;;;20.30;51.70;;;;;;5063754;28;20127;-64
2024/03/01 03:21:23;;;;;;;2.13;1.58;;;20.30;51.80;;;;;;5080362;28;20024;-63
2024/03/01 03:23:49;;;;;;;1.98;1.50;;;20.30;51.80;;;;;;5079847;28;20032;-63
2024/03/01 03:26:14;;;;;;;2.30;1.65;;;20.30;51.80;;;;;;5081222;28;20047;-63
2024/03/01 03:28:40;;;;;;;1.98;1.40;;;20.30;51.80;;;;;;5078717;28;20017;-63
2024/03/01 03:31:05;;;;;;;2.47;1.63;;;20.30;51.80;;;;;;5077801;28;20134;-63
2024/03/01 03:33:31;;;;;;;2.05;1.38;;;20.30;52.30;;;;;;5079454;28;20025;-63
2024/03/01 03:35:56;;;;;;;1.80;1.27;;;20.30;51.80;;;;;;5078591;28;20063;-62
2024/03/01 03:38:22;;;;;;;2.08;1.60;;;20.20;51.80;;;;;;5077956;28;20029;-63
2024/03/01 03:40:48;;;;;;;1.80;1.30;;;20.20;51.80;;;;;;5080323;28;20036;-64
2024/03/01 03:43:13;;;;;;;2.05;1.40;;;20.20;51.80;;;;;;5077527;28;20027;-63
2024/03/01 03:45:40;;;;;;;2.55;1.60;;;20.20;51.80;;;;;;5078056;28;20025;-63
2024/03/01 03:48:06;;;;;;;2.35;1.60;;;20.20;51.80;;;;;;5075634;28;20025;-63
2024/03/01 03:50:32;;;;;;;1.98;1.50;;;20.20;51.80;;;;;;5078390;28;20017;-63
2024/03/01 03:52:57;;;;;;;2.58;1.60;;;20.20;51.90;;;;;;5077906;28;20111;-63
2024/03/01 03:55:23;;;;;;;2.17;1.50;;;20.20;51.90;;;;;;5062571;28;20028;-63
2024/03/01 03:57:48;;;;;;;2.30;1.60;;;20.20;51.90;;;;;;5080273;28;20124;-64
2024/03/01 04:00:17;;;;;;;2.42;1.65;;;20.20;51.90;;;;;;5078709;28;20031;-63
2024/03/01 04:02:44;;;;;;;2.05;1.45;;;20.20;51.90;;;;;;5079291;28;20416;-63
2024/03/01 04:05:10;;;;;;;2.15;1.50;;;20.20;51.90;;;;;;5078639;28;20380;-63
2024/03/01 04:07:35;;;;;;;2.35;1.52;;;20.20;51.90;;;;;;5081038;28;20034;-63
2024/03/01 04:10:05;;;;;;;2.20;1.60;;;20.20;51.90;;;;;;5080246;28;20020;-63
2024/03/01 04:12:30;;;;;;;1.98;1.50;;;20.20;51.90;;;;;;5080798;28;20110;-63
2024/03/01 04:14:56;;;;;;;1.90;1.40;;;20.10;51.90;;;;;;5079107;28;20021;-63
2024/03/01 04:17:21;;;;;;;1.92;1.33;;;20.20;51.90;;;;;;5093620;28;20079;-63
2024/03/01 04:19:47;;;;;;;2.35;1.55;;;20.10;51.90;;;;;;5079320;28;20114;-63
2024/03/01 04:22:13;;;;;;;2.63;1.60;;;20.10;51.90;;;;;;5080530;28;20103;-63
2024/03/01 04:24:39;;;;;;;1.98;1.48;;;20.10;51.90;;;;;;5079812;28;20043;-63
2024/03/01 04:27:05;;;;;;;2.25;1.65;;;20.10;51.90;;;;;;5061158;28;20506;-64
2024/03/01 04:29:31;;;;;;;2.05;1.50;;;20.10;52.50;;;;;;5077731;28;20036;-64
2024/03/01 04:31:57;;;;;;;2.33;1.60;;;20.10;51.90;;;;;;5077787;28;20024;-65
2024/03/01 04:34:22;;;;;;;2.30;1.70;;;20.10;51.90;;;;;;5076071;28;20020;-64
2024/03/01 04:36:48;;;;;;;2.30;1.40;;;20.10;51.90;;;;;;5075311;28;20412;-62
2024/03/01 04:39:14;;;;;;;2.00;1.48;;;20.10;52.00;;;;;;5076128;28;20035;-63
2024/03/01 04:41:40;;;;;;;2.28;1.60;;;20.10;52.00;;;;;;5079112;28;20028;-63
2024/03/01 04:44:06;;;;;;;2.20;1.60;;;20.10;52.10;;;;;;5078404;28;20078;-63
2024/03/01 04:46:32;;;;;;;2.28;1.70;;;20.10;52.10;;;;;;5075712;28;20032;-63
2024/03/01 04:48:58;;;;;;;3.08;2.00;;;20.10;52.10;;;;;;5076620;28;20043;-64
2024/03/01 04:51:24;;;;;;;3.00;1.83;;;20.10;52.70;;;;;;5078899;28;20024;-63
2024/03/01 04:53:50;;;;;;;2.28;1.70;;;20.00;52.20;;;;;;5079624;28;20367;-63
2024/03/01 04:56:17;;;;;;;2.70;1.60;;;20.00;52.30;;;;;;5076377;28;20031;-63
2024/03/01 04:58:43;;;;;;;2.83;1.88;;;20.00;52.30;;;;;;5078511;28;20032;-63
2024/03/01 05:01:10;;;;;;;2.63;1.70;;;20.00;52.30;;;;;;5079434;28;20032;-63
2024/03/01 05:03:37;;;;;;;2.17;1.50;;;20.00;52.30;;;;;;5078521;28;20050;-64
2024/03/01 05:06:05;;;;;;;2.60;1.90;;;20.00;52.30;;;;;;5082640;28;20032;-63
2024/03/01 05:08:34;;;;;;;2.53;1.60;;;20.00;52.30;;;;;;5081753;28;20039;-63
2024/03/01 05:10:59;;;;;;;2.50;1.80;;;20.00;52.40;;;;;;5080583;28;20016;-63
2024/03/01 05:13:26;;;;;;;2.45;1.60;;;20.00;52.40;;;;;;5081643;28;20069;-63
2024/03/01 05:15:52;;;;;;;2.10;1.50;;;20.00;52.40;;;;;;5081341;28;20031;-63
2024/03/01 05:18:18;;;;;;;2.10;1.50;;;20.00;52.40;;;;;;5079306;28;20459;-63
2024/03/01 05:20:44;;;;;;;2.17;1.58;;;20.00;52.40;;;;;;5081095;28;20036;-63
2024/03/01 05:23:10;;;;;;;2.60;1.80;;;20.00;52.40;;;;;;5082526;28;20028;-63
2024/03/01 05:25:36;;;;;;;2.25;1.60;;;20.00;52.40;;;;;;5081190;28;20818;-64
2024/03/01 05:28:02;;;;;;;1.98;1.40;;;20.00;52.40;;;;;;5063886;28;20028;-63
2024/03/01 05:30:29;;;;;;;2.22;1.48;;;20.00;52.50;;;;;;5082578;28;20394;-63
2024/03/01 05:32:55;;;;;;;2.45;1.67;;;20.00;52.50;;;;;;5080185;28;20031;-63
2024/03/01 05:35:21;;;;;;;2.63;1.65;;;20.00;52.50;;;;;;5083455;28;20384;-64
2024/03/01 05:37:47;;;;;;;2.53;1.73;;;20.00;52.50;;;;;;5082946;28;20067;-63
2024/03/01 05:40:15;;;;;;;2.88;1.70;;;20.00;52.50;;;;;;5082103;28;20507;-63
2024/03/01 05:42:44;;;;;;;2.55;1.60;;;20.00;52.60;;;;;;5081455;28;20032;-63
2024/03/01 05:45:11;;;;;;;2.45;1.63;;;20.00;52.60;;;;;;5072231;28;20325;-63
2024/03/01 05:47:44;;;;;;;2.45;1.77;;;19.90;52.50;;;;;;5078486;28;20048;-63
2024/03/01 05:50:13;;;;;;;2.50;1.88;;;19.90;52.50;;;;;;5080752;28;20042;-63
2024/03/01 05:52:41;;;;;;;3.10;1.80;;;19.90;52.60;;;;;;5081796;28;20107;-63
2024/03/01 05:55:09;;;;;;;2.67;1.77;;;20.00;52.80;;;;;;5080097;28;20094;-63
2024/03/01 05:57:36;;;;;;;2.63;1.70;;;19.90;52.90;;;;;;5081399;28;20031;-63
2024/03/01 06:00:25;;;;;;;2.67;2.05;;;20.00;53.10;;;;;;5079959;28;20038;-63
2024/03/01 06:02:50;;;;;;;4.55;2.28;;;19.90;53.20;;;;;;5079001;28;20149;-62
2024/03/01 06:05:16;;;;;;;3.08;2.17;;;20.00;53.20;;;;;;5081191;28;20111;-63
2024/03/01 06:07:42;;;;;;;3.10;2.10;;;19.90;53.20;;;;;;5080822;28;20021;-63
2024/03/01 06:10:08;;;;;;;3.08;2.03;;;20.00;53.20;;;;;;5080596;28;20149;-63
2024/03/01 06:12:34;;;;;;;3.88;2.05;;;20.00;53.20;;;;;;5081997;28;20032;-63
2024/03/01 06:15:00;;;;;;;3.28;1.88;;;19.90;53.10;;;;;;5080051;28;20027;-63
2024/03/01 06:17:25;;;;;;;3.40;2.00;;;20.00;53.20;;;;;;5077210;28;20503;-63
2024/03/01 06:19:52;;;;;;;2.67;1.70;;;20.00;53.10;;;;;;5080195;28;20078;-63
2024/03/01 06:22:17;;;;;;;4.57;1.85;;;20.00;53.10;;;;;;5064702;28;20028;-64
2024/03/01 06:24:43;;;;;;;2.67;1.77;;;20.00;53.10;;;;;;5080361;28;20024;-63
2024/03/01 06:27:08;;;;;;;3.63;2.00;;;19.90;53.00;;;;;;5081877;28;20032;-63
2024/03/01 06:29:34;;;;;;;2.95;1.92;;;20.00;53.10;;;;;;5080684;28;20029;-62
2024/03/01 06:32:00;;;;;;;2.75;1.90;;;19.90;53.00;;;;;;5080748;28;20109;-63
2024/03/01 06:34:26;;;;;;;3.17;1.90;;;19.90;53.00;;;;;;5080727;28;20035;-62
2024/03/01 06:36:51;;;;;;;4.57;2.22;;;19.90;53.00;;;;;;5080365;28;20546;-62
2024/03/01 06:39:18;;;;;;;3.33;1.90;;;19.90;53.00;;;;;;5079265;28;20055;-63
2024/03/01 06:41:44;;;;;;;2.88;1.90;;;19.90;53.00;;;;;;5078499;28;20019;-63
2024/03/01 06:44:10;;;;;;;3.90;1.83;;;19.90;53.00;;;;;;5078067;28;20032;-62
2024/03/01 06:46:36;;;;;;;2.38;1.70;;;19.90;53.50;;;;;;5079705;28;20495;-65
2024/03/01 06:49:02;;;;;;;4.80;2.25;;;19.90;53.00;;;;;;5078316;28;20078;-65
2024/03/01 06:51:29;;;;;;;2.58;1.85;;;19.90;53.00;;;;;;5081318;28;20104;-65
2024/03/01 06:53:55;;;;;;;3.28;1.77;;;19.90;53.00;;;;;;5079529;28;20024;-65
2024/03/01 06:56:21;;;;;;;2.72;1.90;;;19.90;53.50;;;;;;5078967;28;20040;-65
2024/03/01 06:58:48;;;;;;;2.53;1.73;;;19.90;53.00;;;;;;5080207;28;20120;-65
2024/03/01 07:01:15;;;;;;;3.33;2.10;;;19.90;53.00;;;;;;5080027;28;20020;-65
2024/03/01 07:03:40;;;;;;;3.22;2.08;;;19.90;53.10;;;;;;5079217;28;20035;-65
2024/03/01 07:06:06;;;;;;;3.20;1.90;;;19.90;53.00;;;;;;5079062;28;20040;-65
2024/03/01 07:08:32;;;;;;;3.15;1.80;;;19.90;53.00;;;;;;5078918;28;20031;-65
2024/03/01 07:10:58;;;;;;;4.22;2.58;;;19.90;53.00;;;;;;5079991;28;20480;-66
2024/03/01 07:13:24;;;;;;;3.75;2.10;;;19.90;53.00;;;;;;5080643;28;20441;-65
2024/03/01 07:15:50;;;;;;;5.20;1.90;;;19.90;53.00;;;;;;5079473;28;20025;-65
2024/03/01 07:18:15;;;;;;;3.28;1.77;;;19.90;53.00;;;;;;5076146;28;20081;-65
2024/03/01 07:20:41;;;;;;;3.38;2.00;;;19.90;53.00;;;;;;5083605;28;20498;-65
2024/03/01 07:23:07;;;;;;;3.15;1.95;;;19.90;53.00;;;;;;5080013;28;20457;-65
2024/03/01 07:25:32;;;;;;;3.22;2.03;;;19.90;53.00;;;;;;5077993;28;20024;-65
2024/03/01 07:27:58;;;;;;;2.88;2.03;;;19.90;53.00;;;;;;5079730;28;20039;-65
2024/03/01 07:30:23;;;;;;;3.47;2.00;;;19.80;52.90;;;;;;5080333;28;20867;-65
2024/03/01 07:32:49;;;;;;;3.28;2.00;;;19.90;53.00;;;;;;5077299;28;20031;-65
2024/03/01 07:35:15;;;;;;;3.00;2.00;;;19.90;53.00;;;;;;5078161;28;20468;-65
2024/03/01 07:37:40;;;;;;;3.45;2.00;;;19.90;53.00;;;;;;5079195;28;20527;-65
2024/03/01 07:40:07;;;;;;;3.03;1.85;;;19.90;53.00;;;;;;5079374;28;20031;-65
2024/03/01 07:42:33;;;;;;;3.28;1.85;;;19.90;53.00;;;;;;5080262;28;20479;-65
2024/03/01 07:44:58;;;;;;;3.00;2.13;;;19.80;52.90;;;;;;5076779;28;20039;-65
2024/03/01 07:47:29;;;;;;;2.80;1.80;;;19.80;53.50;;;;;;5062686;28;20059;-65
2024/03/01 07:49:56;;;;;;;2.83;1.90;;;19.80;52.90;;;;;;5075554;28;20036;-65
2024/03/01 07:52:21;;;;;;;3.50;2.00;;;19.80;53.40;;;;;;5077394;28;20025;-65
2024/03/01 07:54:47;;;;;;;3.28;1.92;;;19.90;53.00;;;;;;5079470;28;20031;-65
2024/03/01 07:57:14;;;;;;;2.70;1.92;;;19.80;52.90;;;;;;5080504;28;20050;-64
2024/03/01 07:59:40;;;;;;;2.55;1.80;;;19.80;53.00;;;;;;5078213;28;20028;-63
2024/03/01 08:02:08;;;;;;;2.85;1.90;;;19.80;52.90;;;;;;5078996;28;20028;-63
2024/03/01 08:04:34;;;;;;;2.65;1.88;;;19.80;53.00;;;;;;5076092;28;20115;-62
2024/03/01 08:07:00;;;;;;;3.60;1.90;;;19.80;53.00;;;;;;5079706;28;20119;-65
2024/03/01 08:09:36;;;;;;;4.03;2.00;;;19.80;53.00;;;;;;5077855;28;20714;-65
2024/03/01 08:12:04;;;;;;;2.80;2.05;;;19.80;53.00;;;;;;5080027;28;20070;-65
2024/03/01 08:14:32;;;;;;;2.88;1.92;;;19.80;52.90;;;;;;5079662;28;20029;-65
2024/03/01 08:16:57;;;;;;;3.35;1.95;;;19.80;53.00;;;;;;5078602;28;20032;-65
2024/03/01 08:19:41;;;;;;;4.10;2.17;;;19.80;53.00;;;;;;5076923;28;20043;-65
2024/03/01 08:22:09;;;;;;;4.07;2.10;;;19.80;53.50;;;;;;5080944;28;20020;-65
2024/03/01 08:24:35;;;;;;;3.10;2.00;;;19.80;52.90;;;;;;5078880;28;20035;-65
2024/03/01 08:27:02;;;;;;;3.72;2.13;;;19.80;52.90;;;;;;5078095;28;20549;-65
2024/03/01 08:29:29;;;;;;;3.67;1.98;;;19.80;52.90;;;;;;5076059;28;20402;-65
2024/03/01 08:31:54;;;;;;;3.08;1.90;;;19.80;52.90;;;;;;5078108;28;20039;-65
2024/03/01 08:34:25;;;;;;;3.45;1.70;;;19.80;53.00;;;;;;5077140;28;20412;-65
2024/03/01 08:36:54;;;;;;;3.33;2.10;;;19.80;52.90;;;;;;5077017;28;20032;-65
2024/03/01 08:39:21;;;;;;;2.85;1.95;;;19.80;52.90;;;;;;5077488;28;20107;-64
2024/03/01 08:41:49;;;;;;;3.38;2.00;;;19.80;53.00;;;;;;5076500;28;20032;-65
2024/03/01 08:44:46;;;;;;;4.15;2.17;;;19.80;52.90;;;;;;5077435;28;20504;-65
2024/03/01 08:47:37;;;;;;;3.05;1.98;;;19.80;53.00;;;;;;5076588;28;20040;-65
2024/03/01 08:50:28;;;;;;;3.33;2.20;;;19.80;53.00;;;;;;5070096;28;20502;-65
2024/03/01 08:52:55;;;;;;;3.35;1.77;;;19.80;53.00;;;;;;5078197;28;20025;-65
2024/03/01 08:55:20;;;;;;;4.88;2.20;;;19.80;53.00;;;;;;5078067;28;20021;-65
2024/03/01 08:57:48;;;;;;;3.17;2.15;;;19.70;52.90;;;;;;5079049;28;20028;-65
2024/03/01 09:00:38;;;;;;;3.50;1.98;;;19.80;53.00;;;;;;5078764;28;20515;-65
2024/03/01 09:03:10;;;;;;;2.80;1.95;;;19.80;52.90;;;;;;5080410;28;20028;-65
2024/03/01 09:05:40;;;;;;;4.00;2.20;;;19.80;53.00;;;;;;5078423;28;20511;-65
2024/03/01 09:08:17;;;;;;;3.55;2.10;;;19.80;52.90;;;;;;5079580;28;20063;-63
2024/03/01 09:10:43;;;;;;;3.60;2.08;;;19.80;52.90;;;;;;5076733;28;20036;-62
2024/03/01 09:13:09;;;;;;;2.80;2.10;;;19.80;53.00;;;;;;5080640;28;20112;-63
2024/03/01 09:15:42;;;;;;;3.25;2.05;;;19.80;53.00;;;;;;5078902;28;20456;-62
2024/03/01 09:18:43;;;;;;;3.10;2.00;;;19.80;53.00;;;;;;5078623;28;20134;-62
2024/03/01 09:21:37;;;;;;;3.17;2.22;;;19.80;52.90;;;;;;5075884;28;20021;-63
2024/03/01 09:24:04;;;;;;;3.40;2.05;;;19.80;52.90;;;;;;5076826;28;20122;-63
2024/03/01 09:26:30;;;;;;;3.50;2.20;;;19.70;52.90;;;;;;5079540;28;20555;-62
2024/03/01 09:29:01;;;;;;;4.78;2.30;;;19.70;52.90;;;;;;5078327;28;20115;-62
2024/03/01 09:31:29;;;;;;;3.20;2.30;;;19.70;52.80;;;;;;5077365;28;20027;-62
2024/03/01 09:33:54;;;;;;;2.97;2.20;;;19.70;53.40;;;;;;5077026;28;20413;-62
2024/03/01 09:36:21;;;;;;;3.33;2.00;;;19.70;52.90;;;;;;5075706;28;20020;-63
2024/03/01 09:39:04;;;;;;;3.10;2.10;;;19.70;52.90;;;;;;5077734;28;20598;-63
2024/03/01 09:41:42;;;;;;;4.05;2.10;;;19.70;52.90;;;;;;5077705;28;20027;-63
2024/03/01 09:44:26;;;;;;;3.35;2.25;;;19.70;52.90;;;;;;5077854;28;20042;-63
2024/03/01 09:47:15;;;;;;;3.83;2.47;;;19.70;52.90;;;;;;5077716;28;20028;-62
2024/03/01 09:49:46;;;;;;;;;;;19.70;52.90;;;;;;5078370;28;20107;-63
2024/03/01 09:52:49;;;;;;;3.03;2.10;;;19.70;52.90;;;;;;5081157;28;19975;-63
2024/03/01 09:55:20;;;;;;;3.40;2.10;;;19.70;52.90;;;;;;5081244;28;20107;-62
2024/03/01 09:58:47;;;;;;;3.30;2.00;;;19.70;52.90;;;;;;5083158;28;20055;-63
2024/03/01 10:01:42;;;;;;;3.55;2.20;;;19.70;52.90;;;;;;5057863;28;20495;-63
2024/03/01 10:04:19;;;;;;;3.08;2.08;;;19.70;52.90;;;;;;5077253;28;20028;-64
2024/03/01 10:07:06;;;;;;;3.28;2.20;;;19.70;52.90;;;;;;5081354;28;20020;-63
2024/03/01 10:09:51;;;;;;;2.63;2.05;;;19.70;52.90;;;;;;5081676;28;20441;-64
2024/03/01 10:12:46;;;;;;;3.30;2.13;;;19.70;52.90;;;;;;5082470;28;20023;-63
2024/03/01 10:15:38;;;;;;;3.10;2.10;;;19.70;52.90;;;;;;5026249;28;20041;-62
2024/03/01 10:18:34;;;;;;;3.30;2.20;;;19.70;52.90;;;;;;5079995;28;20039;-62
2024/03/01 10:21:13;;;;;;;3.90;2.58;;;19.70;52.90;;;;;;5079226;28;20334;-63
2024/03/01 10:24:00;;;;;;;3.40;2.40;;;19.70;52.90;;;;;;5082042;28;20020;-62
2024/03/01 10:26:27;;;;;;;3.60;2.15;;;19.70;52.90;;;;;;5081853;28;20138;-63
2024/03/01 10:29:14;;;;;;;3.92;2.45;;;19.70;52.90;;;;;;5079546;28;20056;-64
2024/03/01 10:32:13;;;;;;;3.10;2.10;;;19.70;52.90;;;;;;5079015;28;20031;-63
2024/03/01 10:35:03;;;;;;;3.03;2.33;;;19.70;52.90;;;;;;5043509;28;20040;-62
2024/03/01 10:37:43;;;;;;;3.72;2.20;;;19.70;52.90;;;;;;5079484;28;20287;-63
2024/03/01 10:40:19;;;;;;;3.30;2.40;;;19.70;52.90;;;;;;5079546;28;20481;-63
2024/03/01 10:43:11;;;;;;;3.50;2.22;;;19.70;53.00;;;;;;5081860;28;20032;-63
2024/03/01 10:46:00;;;;;;;3.13;2.40;;;19.70;53.00;;;;;;5061428;28;20497;-62
2024/03/01 10:48:33;;;;;;;3.72;2.22;;;19.70;53.00;;;;;;5081215;28;20489;-63
2024/03/01 10:51:03;;;;;;;3.05;2.15;;;19.70;53.00;;;;;;5078581;28;20524;-63
2024/03/01 10:53:31;;;;;;;3.55;2.30;;;19.70;53.00;;;;;;5080862;28;20108;-63
2024/03/01 10:56:08;;;;;;;2.90;1.88;;;19.70;53.40;;;;;;5080746;28;20357;-62
2024/03/01 10:58:43;;;;;;;3.67;2.30;;;19.60;52.90;;;;;;5079633;28;20449;-63
2024/03/01 11:01:25;;;;;;;3.47;2.33;;;19.70;52.90;;;;;;5082000;28;20062;-63
2024/03/01 11:04:18;;;;;;;3.40;2.40;;;19.70;53.00;;;;;;5061827;28;20090;-62
2024/03/01 11:06:59;;;;;;;3.33;2.47;;;19.70;52.90;;;;;;5080191;28;20506;-63
2024/03/01 11:09:32;;;;;;;3.70;2.28;;;19.70;52.90;;;;;;5080118;28;20027;-63
2024/03/01 11:12:24;;;;;;;3.67;2.30;;;19.60;52.90;;;;;;5081464;28;20560;-62
2024/03/01 11:15:03;;;;;;;3.10;2.10;;;19.70;53.00;;;;;;5079890;28;20480;-62
2024/03/01 11:17:31;;;;;;;3.50;2.30;;;19.70;53.00;;;;;;5080886;28;20034;-63
2024/03/01 11:20:10;;;;;;;3.70;2.35;;;19.70;53.00;;;;;;5076674;28;20281;-62
2024/03/01 11:22:41;;;;;;;;;;;19.70;53.50;;;;;;5081110;28;20415;-62
2024/03/01 11:25:20;;;;;;;3.10;2.33;;;19.70;53.00;;;;;;5079983;28;19904;-62
2024/03/01 11:27:46;;;;;;;;;;;19.60;53.00;;;;;;5081823;28;20060;-63
2024/03/01 11:30:13;;;;;;;2.90;2.38;;;19.70;53.00;;;;;;5079817;28;20382;-62
2024/03/01 11:32:46;;;;;;;3.58;2.25;;;19.70;53.00;;;;;;5079325;28;20148;-62
2024/03/01 11:35:33;;;;;;;2.90;2.08;;;19.70;53.20;;;;;;5076121;28;20052;-63
2024/03/01 11:37:58;;;;;;;3.55;2.50;;;19.70;53.10;;;;;;5080889;28;20032;-62
2024/03/01 11:41:01;;;;;;;3.20;2.33;;;19.70;53.00;;;;;;5077895;28;20025;-63
2024/03/01 11:43:39;;;;;;;3.47;2.30;;;19.70;53.10;;;;;;5081391;28;20035;-62
2024/03/01 11:46:13;;;;;;;3.13;2.35;;;19.60;53.00;;;;;;5078886;28;20031;-63
2024/03/01 11:49:05;;;;;;;2.95;2.20;;;19.70;53.10;;;;;;5080323;28;20028;-63
2024/03/01 11:51:33;;;;;;;4.10;2.40;;;19.70;53.10;;;;;;5076818;28;20031;-63
2024/03/01 11:54:30;;;;;;;3.63;2.23;;;19.60;53.10;;;;;;5078556;28;20037;-63
2024/03/01 11:57:20;;;;;;;3.63;2.15;;;19.60;53.10;;;;;;5079701;28;20336;-62
2024/03/01 12:00:09;;;;;;;3.88;2.67;;;19.70;53.10;;;;;;5079654;28;20158;-63
2024/03/01 12:03:00;;;;;;;3.95;2.13;;;19.60;53.10;;;;;;5078940;28;20381;-63
2024/03/01 12:05:34;;;;;;;3.05;2.30;;;19.60;53.10;;;;;;5077985;28;20024;-63
2024/03/01 12:08:18;;;;;;;3.30;2.25;;;19.70;53.10;;;;;;5075377;28;20028;-63
2024/03/01 12:10:50;;;;;;;3.35;2.30;;;19.60;53.10;;;;;;5078611;28;20107;-62
2024/03/01 12:13:16;;;;;;;3.10;2.08;;;19.70;53.10;;;;;;5076525;28;20126;-63
2024/03/01 12:15:58;;;;;;;3.50;2.20;;;19.70;53.10;;;;;;5078783;28;20400;-63
2024/03/01 12:18:29;;;;;;;3.70;2.40;;;19.60;53.10;;;;;;5078504;28;20407;-62
2024/03/01 12:21:10;;;;;;;3.35;2.30;;;19.70;53.20;;;;;;5079317;28;20121;-62
2024/03/01 12:24:18;;;;;;;3.15;2.20;;;19.60;53.10;;;;;;5057579;28;20021;-63
2024/03/01 12:26:52;;;;;;;3.17;2.40;;;19.70;53.20;;;;;;5057936;28;20047;-62
2024/03/01 12:29:23;;;;;;;3.45;2.25;;;19.60;53.10;;;;;;5077851;28;20285;-62
2024/03/01 12:32:15;;;;;;;4.65;2.53;;;19.60;53.20;;;;;;5078420;28;20107;-62
2024/03/01 12:34:58;;;;;;;4.10;2.50;;;19.70;53.20;;;;;;5079787;28;20485;-63
2024/03/01 12:37:46;;;;;;;4.05;2.47;;;19.70;53.20;;;;;;5060174;28;20669;-63
2024/03/01 12:40:18;;;;;;;3.20;2.10;;;19.70;53.30;;;;;;5061998;28;20028;-63
2024/03/01 12:42:49;;;;;;;3.67;2.30;;;19.70;53.20;;;;;;5080406;28;20821;-63
2024/03/01 12:45:38;;;;;;;3.38;2.25;;;19.70;53.20;;;;;;5078401;28;20400;-63
2024/03/01 12:48:31;;;;;;;4.25;2.60;;;19.60;53.30;;;;;;5078204;28;20078;-66
2024/03/01 12:50:56;;;;;;;4.05;2.40;;;19.70;53.30;;;;;;5075084;28;20028;-65
2024/03/01 12:53:43;;;;;;;3.05;2.05;;;19.70;53.30;;;;;;5062549;28;20024;-65
2024/03/01 12:56:21;;;;;;;3.65;2.10;;;19.60;53.30;;;;;;5079270;28;20036;-66
2024/03/01 12:59:05;;;;;;;3.33;2.30;;;19.60;53.30;;;;;;5076919;28;20496;-66
2024/03/01 13:01:44;;;;;;;3.25;2.00;;;19.70;53.30;;;;;;5077806;28;20468;-66
2024/03/01 13:04:46;;;;;;;4.15;2.45;;;19.70;53.40;;;;;;5078494;28;20063;-65
2024/03/01 13:07:14;;;;;;;2.85;1.95;;;19.70;53.50;;;;;;5077456;28;20413;-65